Weather at Aviosuperficie Caposile

Public forecast

Using degrees Celsius for public forecast. Weather courtesy of forecast.io.

Closest aviation weather report (METAR) to Aviosuperficie Caposile

Closest report is Venice Marco Polo Airport, 10.0 nm (18.6 km) WSW. Retrieved 2020/09/18 23:20 UTC (0 seconds ago):

LIPZ 182320Z 03009KT CAVOK 19/12 Q1021 NOSIG

Closest aviation forecast (TAF) to Aviosuperficie Caposile

Closest forecast is Venice Marco Polo Airport, 10.0 nm (18.6 km) WSW. Retrieved 2020/09/18 18:00 UTC (5 hours ago):

TAF LIPZ 181700Z 1818/1924 03010KT CAVOK BECMG 1908/1910 12010KT BECMG 1918/1920 02008KT